Time,TemperatureF,DewpointF,PressureIn,WindDirection,WindDirectionDegrees,WindSpeedMPH,WindSpeedGustMPH,Humidity,HourlyPrecipIn,Conditions,Clouds,dailyrainin,SoftwareType,DateUTC
2013-01-03 00:02:00,11.9,2.0,30.16,NNW,336,5.0,-999.0,65,-99.99,,,0.00,weatherlink.com 1.10,2013-01-03 05:02:00,
2013-01-03 00:17:00,11.4,2.0,30.15,NNW,342,4.0,-999.0,65,-99.99,,,0.00,weatherlink.com 1.10,2013-01-03 05:17:00,
2013-01-03 00:32:00,9.9,1.0,30.15,NNW,346,3.0,-999.0,67,-99.99,,,0.00,weatherlink.com 1.10,2013-01-03 05:32:00,
2013-01-03 00:47:00,9.0,0.0,30.17,NNE,25,10.0,-999.0,67,-99.99,,,0.00,weatherlink.com 1.10,2013-01-03 05:47:00,
2013-01-03 01:02:00,7.9,-1.0,30.17,NNW,338,4.0,-999.0,67,-99.99,,,0.00,weatherlink.com 1.10,2013-01-03 06:02:00,
2013-01-03 01:17:00,7.0,-2.0,30.17,NW,323,3.0,-999.0,68,-99.99,,,0.00,weatherlink.com 1.10,2013-01-03 06:17:00,
2013-01-03 01:32:00,6.3,-2.0,30.17,NW,313,5.0,-999.0,69,-99.99,,,0.00,weatherlink.com 1.10,2013-01-03 06:32:00,
2013-01-03 01:47:00,5.5,-2.0,30.17,NW,315,4.0,-999.0,70,-99.99,,,0.00,weatherlink.com 1.10,2013-01-03 06:47:00,
2013-01-03 02:02:00,4.8,-2.0,30.17,NNW,336,2.0,-999.0,72,-99.99,,,0.00,weatherlink.com 1.10,2013-01-03 07:02:00,
2013-01-03 02:17:00,4.2,-3.0,30.18,NW,315,1.0,-999.0,73,-99.99,,,0.00,weatherlink.com 1.10,2013-01-03 07:17:00,
2013-01-03 02:32:00,5.0,-2.0,30.17,NW,322,5.0,-999.0,72,-99.99,,,0.00,weatherlink.com 1.10,2013-01-03 07:32:00,
2013-01-03 03:03:00,4.2,-3.0,30.16,NNW,336,3.0,-999.0,72,-99.99,,,0.00,weatherlink.com 1.10,2013-01-03 08:03:00,
2013-01-03 03:18:00,3.8,-3.0,30.16,North,350,7.0,-999.0,73,-99.99,,,0.00,weatherlink.com 1.10,2013-01-03 08:18:00,
2013-01-03 03:33:00,3.4,-3.0,30.16,NNW,338,2.0,-999.0,73,-99.99,,,0.00,weatherlink.com 1.10,2013-01-03 08:33:00,
2013-01-03 03:48:00,3.2,-4.0,30.15,North,349,5.0,-999.0,73,-99.99,,,0.00,weatherlink.com 1.10,2013-01-03 08:48:00,
2013-01-03 04:03:00,2.9,-4.0,30.16,NNW,343,1.0,-999.0,73,-99.99,,,0.00,weatherlink.com 1.10,2013-01-03 09:03:00,
2013-01-03 04:18:00,2.7,-4.0,30.16,NW,319,2.0,-999.0,73,-99.99,,,0.00,weatherlink.com 1.10,2013-01-03 09:18:00,
2013-01-03 04:33:00,2.5,-4.0,30.15,NNW,338,3.0,-999.0,73,-99.99,,,0.00,weatherlink.com 1.10,2013-01-03 09:33:00,
2013-01-03 04:48:00,2.3,-5.0,30.15,NW,304,1.0,-999.0,73,-99.99,,,0.00,weatherlink.com 1.10,2013-01-03 09:48:00,
2013-01-03 05:03:00,2.0,-5.0,30.16,West,276,0.0,-999.0,73,-99.99,,,0.00,weatherlink.com 1.10,2013-01-03 10:03:00,
2013-01-03 05:18:00,1.7,-5.0,30.16,NW,310,0.0,-999.0,73,-99.99,,,0.00,weatherlink.com 1.10,2013-01-03 10:18:00,
2013-01-03 05:48:00,0.4,-6.0,30.16,North,360,0.0,-999.0,74,-99.99,,,0.00,weatherlink.com 1.10,2013-01-03 10:48:00,
2013-01-03 06:19:00,-1.2,-7.0,30.16,North,360,0.0,-999.0,75,-99.99,,,0.00,weatherlink.com 1.10,2013-01-03 11:19:00,
2013-01-03 06:34:00,-1.8,-8.0,30.17,North,360,0.0,-999.0,75,-99.99,,,0.00,weatherlink.com 1.10,2013-01-03 11:34:00,
2013-01-03 06:49:00,-2.7,-8.0,30.17,North,360,0.0,-999.0,77,-99.99,,,0.00,weatherlink.com 1.10,2013-01-03 11:49:00,
2013-01-03 07:04:00,-3.0,-8.0,30.16,North,360,0.0,-999.0,78,-99.99,,,0.00,weatherlink.com 1.10,2013-01-03 12:04:00,
2013-01-03 07:19:00,-3.1,-8.0,30.17,North,360,0.0,-999.0,79,-99.99,,,0.00,weatherlink.com 1.10,2013-01-03 12:19:00,
2013-01-03 07:34:00,-3.5,-9.0,30.16,North,360,0.0,-999.0,79,-99.99,,,0.00,weatherlink.com 1.10,2013-01-03 12:34:00,
2013-01-03 07:49:00,-3.7,-9.0,30.16,North,360,0.0,-999.0,79,-99.99,,,0.00,weatherlink.com 1.10,2013-01-03 12:49:00,
2013-01-03 08:04:00,-3.5,-8.0,30.16,North,360,0.0,-999.0,80,-99.99,,,0.00,weatherlink.com 1.10,2013-01-03 13:04:00,
2013-01-03 08:19:00,-2.7,-7.0,30.16,NNE,15,0.0,-999.0,81,-99.99,,,0.00,weatherlink.com 1.10,2013-01-03 13:19:00,
2013-01-03 08:34:00,-0.5,-5.0,30.16,NW,323,2.0,-999.0,80,-99.99,,,0.00,weatherlink.com 1.10,2013-01-03 13:34:00,
2013-01-03 08:49:00,1.4,-4.0,30.16,WNW,296,2.0,-999.0,77,-99.99,,,0.00,weatherlink.com 1.10,2013-01-03 13:49:00,
2013-01-03 09:04:00,2.9,-4.0,30.16,NW,317,2.0,-999.0,74,-99.99,,,0.00,weatherlink.com 1.10,2013-01-03 14:04:00,
2013-01-03 09:19:00,4.0,-4.0,30.16,NW,314,0.0,-999.0,71,-99.99,,,0.00,weatherlink.com 1.10,2013-01-03 14:19:00,
2013-01-03 09:34:00,5.1,-3.0,30.16,NW,313,1.0,-999.0,70,-99.99,,,0.00,weatherlink.com 1.10,2013-01-03 14:34:00,
2013-01-03 09:49:00,5.7,-3.0,30.16,NNW,336,3.0,-999.0,68,-99.99,,,0.00,weatherlink.com 1.10,2013-01-03 14:49:00,
2013-01-03 10:05:00,6.8,-2.0,30.16,NW,306,1.0,-999.0,67,-99.99,,,0.00,weatherlink.com 1.10,2013-01-03 15:05:00,
2013-01-03 10:20:00,7.7,-1.0,30.16,NNW,338,0.0,-999.0,68,-99.99,,,0.00,weatherlink.com 1.10,2013-01-03 15:20:00,
2013-01-03 10:35:00,8.8,0.0,30.16,NNW,335,3.0,-999.0,67,-99.99,,,0.00,weatherlink.com 1.10,2013-01-03 15:35:00,
2013-01-03 10:50:00,9.7,0.0,30.15,NW,324,1.0,-999.0,66,-99.99,,,0.00,weatherlink.com 1.10,2013-01-03 15:50:00,
2013-01-03 11:20:00,12.2,2.0,30.14,South,173,2.0,-999.0,63,-99.99,,,0.00,weatherlink.com 1.10,2013-01-03 16:20:00,
2013-01-03 11:35:00,14.0,2.0,30.13,South,188,2.0,-999.0,60,-99.99,,,0.00,weatherlink.com 1.10,2013-01-03 16:35:00,
2013-01-03 11:50:00,14.8,2.0,30.13,SSW,205,1.0,-999.0,58,-99.99,,,0.00,weatherlink.com 1.10,2013-01-03 16:50:00,
2013-01-03 12:05:00,15.5,3.0,30.12,West,263,1.0,-999.0,58,-99.99,,,0.00,weatherlink.com 1.10,2013-01-03 17:05:00,
2013-01-03 12:20:00,16.0,4.0,30.11,West,265,2.0,-999.0,59,-99.99,,,0.00,weatherlink.com 1.10,2013-01-03 17:20:00,
2013-01-03 12:35:00,17.2,5.0,30.11,WSW,246,0.0,-999.0,58,-99.99,,,0.00,weatherlink.com 1.10,2013-01-03 17:35:00,
2013-01-03 12:50:00,18.6,6.0,30.10,WSW,257,0.0,-999.0,57,-99.99,,,0.00,weatherlink.com 1.10,2013-01-03 17:50:00,
2013-01-03 13:05:00,19.7,6.0,30.08,SW,223,0.0,-999.0,55,-99.99,,,0.00,weatherlink.com 1.10,2013-01-03 18:05:00,
2013-01-03 13:21:00,21.0,7.0,30.08,SW,223,1.0,-999.0,55,-99.99,,,0.00,weatherlink.com 1.10,2013-01-03 18:21:00,
2013-01-03 13:36:00,21.4,7.0,30.08,SW,223,1.0,-999.0,53,-99.99,,,0.00,weatherlink.com 1.10,2013-01-03 18:36:00,
2013-01-03 13:51:00,22.7,8.0,30.06,SW,223,0.0,-999.0,53,-99.99,,,0.00,weatherlink.com 1.10,2013-01-03 18:51:00,
2013-01-03 14:06:00,22.7,7.0,30.06,SW,223,1.0,-999.0,52,-99.99,,,0.00,weatherlink.com 1.10,2013-01-03 19:06:00,
2013-01-03 14:51:00,22.2,8.0,30.06,SSW,210,0.0,-999.0,55,-99.99,,,0.00,weatherlink.com 1.10,2013-01-03 19:51:00,
2013-01-03 15:06:00,22.1,8.0,30.06,SSW,210,0.0,-999.0,55,-99.99,,,0.00,weatherlink.com 1.10,2013-01-03 20:06:00,
2013-01-03 15:21:00,21.2,8.0,30.06,SSW,210,0.0,-999.0,57,-99.99,,,0.00,weatherlink.com 1.10,2013-01-03 20:21:00,
2013-01-03 15:36:00,20.4,8.0,30.06,SSW,210,0.0,-999.0,58,-99.99,,,0.00,weatherlink.com 1.10,2013-01-03 20:36:00,
2013-01-03 15:51:00,19.9,8.0,30.06,SSW,210,0.0,-999.0,59,-99.99,,,0.00,weatherlink.com 1.10,2013-01-03 20:51:00,
2013-01-03 16:06:00,19.0,7.0,30.05,SSW,210,0.0,-999.0,61,-99.99,,,0.00,weatherlink.com 1.10,2013-01-03 21:06:00,
2013-01-03 16:21:00,17.6,7.0,30.06,SSW,210,0.0,-999.0,63,-99.99,,,0.00,weatherlink.com 1.10,2013-01-03 21:21:00,
2013-01-03 16:36:00,16.9,8.0,30.06,SSW,210,0.0,-999.0,67,-99.99,,,0.00,weatherlink.com 1.10,2013-01-03 21:36:00,
2013-01-03 16:52:00,16.6,8.0,30.05,SSW,210,0.0,-999.0,70,-99.99,,,0.00,weatherlink.com 1.10,2013-01-03 21:52:00,
2013-01-03 17:07:00,16.3,8.0,30.05,SSW,210,0.0,-999.0,71,-99.99,,,0.00,weatherlink.com 1.10,2013-01-03 22:07:00,
2013-01-03 17:22:00,15.5,7.0,30.05,SSW,210,0.0,-999.0,70,-99.99,,,0.00,weatherlink.com 1.10,2013-01-03 22:22:00,
2013-01-03 17:37:00,14.5,6.0,30.05,SSW,210,0.0,-999.0,70,-99.99,,,0.00,weatherlink.com 1.10,2013-01-03 22:37:00,
2013-01-03 17:52:00,13.7,6.0,30.05,SSW,210,0.0,-999.0,72,-99.99,,,0.00,weatherlink.com 1.10,2013-01-03 22:52:00,
2013-01-03 18:07:00,13.4,7.0,30.05,SSW,210,0.0,-999.0,75,-99.99,,,0.00,weatherlink.com 1.10,2013-01-03 23:07:00,
2013-01-03 18:22:00,13.2,7.0,30.05,SSW,210,0.0,-999.0,76,-99.99,,,0.00,weatherlink.com 1.10,2013-01-03 23:22:00,
2013-01-03 19:07:00,15.2,9.0,30.05,SSW,210,0.0,-999.0,77,-99.99,,,0.00,weatherlink.com 1.10,2013-01-04 00:07:00,
2013-01-03 19:22:00,16.2,10.0,30.05,SSW,210,0.0,-999.0,76,-99.99,,,0.00,weatherlink.com 1.10,2013-01-04 00:22:00,
2013-01-03 19:37:00,16.6,10.0,30.05,SSW,210,0.0,-999.0,75,-99.99,,,0.00,weatherlink.com 1.10,2013-01-04 00:37:00,
2013-01-03 19:52:00,17.3,11.0,30.05,WSW,240,2.0,-999.0,75,-99.99,,,0.00,weatherlink.com 1.10,2013-01-04 00:52:00,
2013-01-03 20:07:00,18.6,12.0,30.05,NW,317,2.0,-999.0,74,-99.99,,,0.00,weatherlink.com 1.10,2013-01-04 01:07:00,
2013-01-03 20:23:00,19.1,12.0,30.06,NW,317,0.0,-999.0,73,-99.99,,,0.00,weatherlink.com 1.10,2013-01-04 01:23:00,
2013-01-03 20:38:00,18.8,12.0,30.04,SW,221,0.0,-999.0,74,-99.99,,,0.00,weatherlink.com 1.10,2013-01-04 01:38:00,
2013-01-03 20:53:00,18.9,12.0,30.05,SE,144,0.0,-999.0,75,-99.99,,,0.00,weatherlink.com 1.10,2013-01-04 01:53:00,
2013-01-03 21:08:00,18.9,13.0,30.05,SE,144,0.0,-999.0,76,-99.99,,,0.00,weatherlink.com 1.10,2013-01-04 02:08:00,
2013-01-03 21:23:00,18.8,13.0,30.05,SE,144,0.0,-999.0,77,-99.99,,,0.00,weatherlink.com 1.10,2013-01-04 02:23:00,
2013-01-03 21:38:00,18.8,12.0,30.04,NW,307,0.0,-999.0,76,-99.99,,,0.00,weatherlink.com 1.10,2013-01-04 02:38:00,
2013-01-03 21:53:00,19.7,13.0,30.04,WNW,283,5.0,-999.0,75,-99.99,,,0.00,weatherlink.com 1.10,2013-01-04 02:53:00,
2013-01-03 22:08:00,20.8,13.0,30.04,WSW,249,0.0,-999.0,73,-99.99,,,0.00,weatherlink.com 1.10,2013-01-04 03:08:00,
2013-01-03 22:23:00,21.1,13.0,30.04,West,270,0.0,-999.0,72,-99.99,,,0.00,weatherlink.com 1.10,2013-01-04 03:23:00,
2013-01-03 22:38:00,21.2,13.0,30.05,WSW,255,0.0,-999.0,72,-99.99,,,0.00,weatherlink.com 1.10,2013-01-04 03:38:00,
2013-01-03 22:53:00,20.7,13.0,30.04,WSW,255,0.0,-999.0,72,-99.99,,,0.00,weatherlink.com 1.10,2013-01-04 03:53:00,
2013-01-03 23:08:00,19.9,13.0,30.03,WSW,255,0.0,-999.0,73,-99.99,,,0.00,weatherlink.com 1.10,2013-01-04 04:08:00,
2013-01-03 23:23:00,19.5,13.0,30.03,WSW,257,1.0,-999.0,75,-99.99,,,0.00,weatherlink.com 1.10,2013-01-04 04:23:00,
2013-01-03 23:38:00,19.4,13.0,30.02,WSW,257,0.0,-999.0,76,-99.99,,,0.00,weatherlink.com 1.10,2013-01-04 04:38:00,
2013-01-03 23:54:00,19.0,12.0,30.01,WSW,257,0.0,-999.0,75,-99.99,,,0.00,weatherlink.com 1.10,2013-01-04 04:54:00,